Terminal Aerodrome Forecast
Issued by NWS

Home | Current Version | Previous Version | Text Only | Print | Product List | Glossary On
Versions: 1 2 3 4 5 6 7 8 9 10 11 12 13 14
000
FTUS41 KLWX 301729
TAFMTN
TAF
KMTN 301729Z 3018/3118 14012KT P6SM FEW040 SCT080
     FM310500 18008KT P6SM BKN040
     FM311400 20007KT P6SM SCT050
     FM311700 19008KT P6SM BKN050=

USA.gov is the U.S. government's official web portal to all federal, state and local government web resources and services.